Time;durP1;ratioP1;P1;durP2;ratioP2;P2;SDS_P1;SDS_P2;PMS_P1;PMS_P2;Temp;Humidity;BMP_temperature;BMP_pressure;BME280_temperature;BME280_humidity;BME280_pressure;Samples;Min_cycle;Max_cycle;Signal;HPM_P1;HPM_P2
2023/01/31 00:00:10;;;;;;;;;;;;;;;0.02;100.00;97625.25;5041386;28;19928;-68
2023/01/31 00:02:36;;;;;;;;;;;;;;;0.02;100.00;97625.25;5045470;28;20281;-68
2023/01/31 00:05:01;;;;;;;;;;;;;;;-0.04;100.00;97619.91;5051345;28;19920;-68
2023/01/31 00:07:26;;;;;;;;;;;;;;;-0.17;100.00;97628.56;5053911;28;19921;-68
2023/01/31 00:09:52;;;;;;;;;;;;;;;-0.19;100.00;97625.31;5054098;28;19950;-68
2023/01/31 00:12:17;;;;;;;;;;;;;;;-0.25;100.00;97613.78;5044132;28;19925;-67
2023/01/31 00:14:42;;;;;;;;;;;;;;;-0.29;100.00;97620.78;5045745;28;20368;-66
2023/01/31 00:17:08;;;;;;;;;;;;;;;-0.39;100.00;97616.22;5040654;28;19975;-67
2023/01/31 00:19:33;;;;;;;;;;;;;;;-0.55;100.00;97611.94;5044808;28;20023;-67
2023/01/31 00:21:58;;;;;;;;;;;;;;;-0.61;100.00;97610.38;5059060;28;19924;-67
2023/01/31 00:24:23;;;;;;;;;;;;;;;-0.65;100.00;97610.09;5041139;28;19920;-68
2023/01/31 00:26:55;;;;;;;;;;;;;;;-0.61;100.00;97616.53;5026576;28;19917;-70
2023/01/31 00:29:21;;;;;;;;;;;;;;;-0.63;100.00;97607.94;5039536;28;19921;-68
2023/01/31 00:31:46;;;;;;;;;;;;;;;-0.67;100.00;97601.47;5061349;28;19976;-67
2023/01/31 00:34:11;;;;;;;;;;;;;;;-0.72;100.00;97603.38;5048292;28;19979;-67
2023/01/31 00:36:37;;;;;;;;;;;;;;;-0.81;100.00;97598.53;5045122;28;19921;-67
2023/01/31 00:39:03;;;;;;;;;;;;;;;-0.83;100.00;97600.69;5057258;28;19917;-66
2023/01/31 00:41:29;;;;;;;;;;;;;;;-0.86;100.00;97593.16;5043789;28;19924;-68
2023/01/31 00:43:55;;;;;;;;;;;;;;;-0.99;100.00;97585.63;5044555;28;19983;-67
2023/01/31 00:46:21;;;;;;;;;;;;;;;-1.04;100.00;97583.75;5038913;28;19916;-68
2023/01/31 00:48:46;;;;;;;;;;;;;;;-1.07;100.00;97586.19;5045716;28;19959;-66
2023/01/31 00:51:11;;;;;;;;;;;;;;;-1.20;100.00;97585.66;5058083;28;19971;-66
2023/01/31 00:53:37;;;;;;;;;;;;;;;-1.14;100.00;97585.66;5048984;28;19921;-67
2023/01/31 00:56:05;;;;;;;;;;;;;;;-1.14;100.00;97585.66;5026444;28;19924;-67
2023/01/31 00:58:30;;;;;;;;;;;;;;;-1.23;100.00;97588.84;5044825;28;19927;-67
2023/01/31 01:00:55;;;;;;;;;;;;;;;-1.31;100.00;97593.97;5045184;28;20381;-67
2023/01/31 01:03:20;;;;;;;;;;;;;;;-1.30;100.00;97595.59;5039623;28;20386;-67
2023/01/31 01:05:46;;;;;;;;;;;;;;;-1.19;100.00;97592.66;5043561;28;19917;-68
2023/01/31 01:08:11;;;;;;;;;;;;;;;-1.18;100.00;97590.75;5039595;28;20392;-68
2023/01/31 01:10:36;;;;;;;;;;;;;;;-1.20;100.00;97585.66;5043678;28;20005;-67
2023/01/31 01:13:02;;;;;;;;;;;;;;;-1.24;100.00;97581.06;5042837;28;19917;-63
2023/01/31 01:15:27;;;;;;;;;;;;;;;-1.25;100.00;97584.84;5023119;28;19917;-68
2023/01/31 01:17:53;;;;;;;;;;;;;;;-1.24;100.00;97581.06;5026798;28;19966;-67
2023/01/31 01:20:19;;;;;;;;;;;;;;;-1.18;100.00;97582.69;5020816;28;19916;-68
2023/01/31 01:22:44;;;;;;;;;;;;;;;-1.10;100.00;97584.81;5044000;28;19939;-68
2023/01/31 01:25:10;;;;;;;;;;;;;;;-1.07;100.00;97586.97;5051570;28;19951;-68
2023/01/31 01:27:35;;;;;;;;;;;;;;;-1.11;100.00;97582.44;5043679;28;20662;-68
2023/01/31 01:30:01;;;;;;;;;;;;;;;-1.14;100.00;97589.13;5044490;28;19924;-67
2023/01/31 01:32:27;;;;;;;;;;;;;;;-1.17;100.00;97597.72;5040552;28;19998;-69
2023/01/31 01:34:52;;;;;;;;;;;;;;;-1.19;100.00;97595.34;5043791;28;19917;-68
2023/01/31 01:37:20;;;;;;;;;;;;;;;-1.15;100.00;97606.34;5048681;28;20403;-67
2023/01/31 01:39:46;;;;;;;;;;;;;;;-0.98;100.00;97604.19;5061269;28;19970;-68
2023/01/31 01:42:15;;;;;;;;;;;;;;;-0.94;100.00;97609.03;5038895;28;20048;-68
2023/01/31 01:44:47;;;;;;;;;;;;;;;-0.93;100.00;97605.28;5043816;28;20031;-68
2023/01/31 01:47:15;;;;;;;;;;;;;;;-0.89;100.00;97612.53;5037699;28;19924;-66
2023/01/31 01:49:41;;;;;;;;;;;;;;;-0.85;100.00;97605.53;5043174;28;19921;-67
2023/01/31 01:52:08;;;;;;;;;;;;;;;-0.53;100.00;97614.38;5053448;28;19924;-66
2023/01/31 01:54:40;;;;;;;;;;;;;;;-0.37;100.00;97615.16;5043270;28;19920;-67
2023/01/31 01:57:06;;;;;;;;;;;;;;;-0.27;100.00;97617.81;5038577;28;19924;-68
2023/01/31 01:59:31;;;;;;;;;;;;;;;-0.05;100.00;97620.19;5027834;28;19916;-67
2023/01/31 02:01:56;;;;;;;;;;;;;;;-0.04;100.00;97613.69;5042904;28;19931;-67
2023/01/31 02:04:24;;;;;;;;;;;;;;;-0.13;100.00;97621.53;5039021;28;20086;-68
2023/01/31 02:06:50;;;;;;;;;;;;;;;-0.11;100.00;97619.41;5042614;28;20022;-68
2023/01/31 02:09:24;;;;;;;;;;;;;;;-0.05;100.00;97625.56;5039223;28;19939;-67
2023/01/31 02:11:50;;;;;;;;;;;;;;;0.02;100.00;97619.84;5043694;28;19917;-68
2023/01/31 02:14:16;;;;;;;;;;;;;;;-0.06;100.00;97621.25;5037935;28;19972;-68
2023/01/31 02:16:42;;;;;;;;;;;;;;;-0.07;100.00;97625.84;5043172;28;19917;-67
2023/01/31 02:19:15;;;;;;;;;;;;;;;-0.11;100.00;97622.09;5037762;28;20309;-68
2023/01/31 02:21:59;;;;;;;;;;;;;;;-0.10;100.00;97620.97;5042341;28;20420;-67
2023/01/31 02:24:27;;;;;;;;;;;;;;;-0.12;100.00;97622.34;5038188;28;19924;-67
2023/01/31 02:27:04;;;;;;;;;;;;;;;-0.18;100.00;97616.19;5024318;28;20438;-67
2023/01/31 02:29:43;;;;;;;;;;;;;;;-0.14;100.00;97614.53;5042462;28;19921;-67
2023/01/31 02:32:20;;;;;;;;;;;;;;;-0.24;100.00;97619.94;5040905;28;19927;-67
2023/01/31 02:34:54;;;;;;;;;;;;;;;-0.28;100.00;97626.97;5056030;28;19917;-68
2023/01/31 02:37:41;;;;;;;;;;;;;;;-0.18;100.00;97629.66;5049028;28;19921;-68
2023/01/31 02:40:21;;;;;;;;;;;;;;;-0.01;100.00;97622.03;5045941;28;19917;-67
2023/01/31 02:42:47;;;;;;;;;;;;;;;0.12;100.00;97628.72;5044384;28;19982;-67
2023/01/31 02:45:18;;;;;;;;;;;;;;;0.12;100.00;97626.00;5019846;28;20453;-68
2023/01/31 02:47:46;;;;;;;;;;;;;;;0.05;100.00;97617.41;5042793;28;19917;-68
2023/01/31 02:50:27;;;;;;;;;;;;;;;0.01;100.00;97626.34;5038047;28;20507;-68
2023/01/31 02:53:04;;;;;;;;;;;;;;;-0.06;100.00;97622.03;5042289;28;19921;-67
2023/01/31 02:58:24;;;;;;;;;;;;;;;-0.26;100.00;97628.31;5037293;28;20506;-68
2023/01/31 03:00:49;;;;;;;;;;;;;;;-0.30;100.00;97629.13;5042172;28;20289;-68
2023/01/31 03:03:23;;;;;;;;;;;;;;;-0.33;100.00;97629.69;5037215;28;19932;-68
2023/01/31 03:06:08;;;;;;;;;;;;;;;-0.30;100.00;97619.16;5042057;28;19917;-67
2023/01/31 03:08:33;;;;;;;;;;;;;;;-0.23;100.00;97622.38;5023167;28;20282;-68
2023/01/31 03:11:01;;;;;;;;;;;;;;;-0.20;100.00;97621.84;5042747;28;19921;-67
2023/01/31 03:13:26;;;;;;;;;;;;;;;-0.26;100.00;97620.22;5037488;28;19924;-68
2023/01/31 03:18:52;;;;;;;;;;;;;;;-0.24;100.00;97623.44;5045198;28;19916;-68
2023/01/31 03:21:22;;;;;;;;;;;;;;;-0.23;100.00;97626.97;5042395;28;19917;-68
2023/01/31 03:23:50;;;;;;;;;;;;;;;-0.21;100.00;97622.09;5054735;28;19921;-67
2023/01/31 03:26:18;;;;;;;;;;;;;;;-0.19;100.00;97636.09;5051871;28;19917;-68
2023/01/31 03:28:45;;;;;;;;;;;;;;;-0.11;100.00;97640.94;5043327;28;19924;-68
2023/01/31 03:31:17;;;;;;;;;;;;;;;-0.05;100.00;97637.13;5050411;28;19921;-68
2023/01/31 03:33:51;;;;;;;;;;;;;;;-0.02;100.00;97639.28;5042940;28;19963;-67
2023/01/31 03:36:16;;;;;;;;;;;;;;;0.04;100.00;97640.06;5017996;28;19917;-68
2023/01/31 03:38:48;;;;;;;;;;;;;;;0.05;100.00;97640.88;5041848;28;19928;-67
2023/01/31 03:41:20;;;;;;;;;;;;;;;0.06;100.00;97648.69;5037405;28;19984;-67
2023/01/31 03:43:53;;;;;;;;;;;;;;;0.07;100.00;97650.28;5024249;28;19917;-68
2023/01/31 03:46:21;;;;;;;;;;;;;;;0.09;100.00;97650.84;5038787;28;20283;-67
2023/01/31 03:48:48;;;;;;;;;;;;;;;0.08;100.00;97646.50;5048811;28;19921;-67
2023/01/31 03:51:18;;;;;;;;;;;;;;;0.13;100.00;97649.19;5045359;28;20028;-67
2023/01/31 03:53:49;;;;;;;;;;;;;;;0.15;100.00;97659.69;5041449;28;19966;-66
2023/01/31 03:56:17;;;;;;;;;;;;;;;0.17;100.00;97660.22;5018148;28;19963;-68
2023/01/31 03:58:46;;;;;;;;;;;;;;;0.15;100.00;97655.09;5042187;28;20525;-68
2023/01/31 04:01:13;;;;;;;;;;;;;;;0.13;100.00;97659.97;5036533;28;19917;-69
2023/01/31 04:03:48;;;;;;;;;;;;;;;0.11;100.00;97659.44;5041323;28;19927;-68
2023/01/31 04:06:14;;;;;;;;;;;;;;;0.11;100.00;97664.00;5037134;28;19920;-68
2023/01/31 04:08:39;;;;;;;;;;;;;;;0.07;100.00;97669.13;5041635;28;19927;-68
2023/01/31 04:11:07;;;;;;;;;;;;;;;-0.03;100.00;97672.66;5037637;28;20333;-68
2023/01/31 04:13:33;;;;;;;;;;;;;;;-0.09;100.00;97670.25;5042783;28;20294;-67
2023/01/31 04:15:58;;;;;;;;;;;;;;;-0.06;100.00;97669.72;5056482;28;19917;-68
2023/01/31 04:18:23;;;;;;;;;;;;;;;-0.04;100.00;97662.16;5038080;28;19932;-68
2023/01/31 04:20:49;;;;;;;;;;;;;;;-0.06;100.00;97667.03;5043310;28;19920;-67
2023/01/31 04:23:14;;;;;;;;;;;;;;;-0.08;100.00;97664.59;5037983;28;19929;-67
2023/01/31 04:25:39;;;;;;;;;;;;;;;-0.07;100.00;97666.22;5044296;28;19917;-66
2023/01/31 04:28:04;;;;;;;;;;;;;;;-0.14;100.00;97662.22;5023790;28;20278;-66
2023/01/31 04:30:30;;;;;;;;;;;;;;;-0.19;100.00;97665.72;5046797;28;20078;-66
2023/01/31 04:32:56;;;;;;;;;;;;;;;-0.20;100.00;97658.72;5047881;28;20042;-67
2023/01/31 04:35:21;;;;;;;;;;;;;;;-0.23;100.00;97661.97;5042345;28;19925;-67
2023/01/31 04:37:46;;;;;;;;;;;;;;;-0.36;100.00;97663.34;5046979;28;20072;-67
2023/01/31 04:40:14;;;;;;;;;;;;;;;-0.45;100.00;97675.72;5041521;28;19924;-67
2023/01/31 04:42:39;;;;;;;;;;;;;;;-0.49;100.00;97663.88;5046812;28;19971;-67
2023/01/31 04:45:05;;;;;;;;;;;;;;;-0.43;100.00;97671.69;5042058;28;19925;-67
2023/01/31 04:47:30;;;;;;;;;;;;;;;-0.32;100.00;97672.47;5046671;28;20015;-67
2023/01/31 04:49:55;;;;;;;;;;;;;;;-0.35;100.00;97678.41;5061025;28;19979;-67
2023/01/31 04:52:23;;;;;;;;;;;;;;;-0.27;100.00;97674.34;5041058;28;20386;-68
2023/01/31 04:54:48;;;;;;;;;;;;;;;-0.32;100.00;97675.16;5050792;28;20004;-68
2023/01/31 04:57:13;;;;;;;;;;;;;;;-0.30;100.00;97674.91;5062542;28;19917;-67
2023/01/31 04:59:39;;;;;;;;;;;;;;;-0.35;100.00;97673.00;5049722;28;19916;-67
2023/01/31 05:02:04;;;;;;;;;;;;;;;-0.35;100.00;97662.25;5051974;28;20027;-66
2023/01/31 05:04:29;;;;;;;;;;;;;;;-0.39;100.00;97664.66;5053685;28;19916;-67
2023/01/31 05:06:54;;;;;;;;;;;;;;;-0.44;100.00;97666.56;5034867;28;19939;-67
2023/01/31 05:09:21;;;;;;;;;;;;;;;-0.48;100.00;97668.19;5043693;28;19921;-66
2023/01/31 05:11:46;;;;;;;;;;;;;;;-0.50;100.00;97679.22;5045741;28;19940;-68
2023/01/31 05:14:13;;;;;;;;;;;;;;;-0.53;100.00;97677.06;5038934;28;19925;-68
2023/01/31 05:16:39;;;;;;;;;;;;;;;-0.59;100.00;97681.66;5042822;28;19968;-66
2023/01/31 05:19:04;;;;;;;;;;;;;;;-0.64;100.00;97683.53;5039981;28;19975;-67
2023/01/31 05:21:53;;;;;;;;;;;;;;;-0.68;100.00;97679.78;5044983;28;20011;-67
2023/01/31 05:24:15;;;;;;;;;;;;;;;-0.72;100.00;97684.06;5038725;28;19917;-66
2023/01/31 05:26:40;;;;;;;;;;;;;;;-0.79;100.00;97693.22;5025675;28;19916;-66
2023/01/31 05:29:06;;;;;;;;;;;;;;;-0.74;100.00;97694.28;5038566;28;19966;-67
2023/01/31 05:31:31;;;;;;;;;;;;;;;-0.79;100.00;97701.28;5043640;28;20529;-67
2023/01/31 05:33:57;;;;;;;;;;;;;;;-0.93;100.00;97702.09;5043691;28;19921;-70
2023/01/31 05:36:22;;;;;;;;;;;;;;;-1.01;100.00;97698.88;5020504;28;19925;-67
2023/01/31 05:38:47;;;;;;;;;;;;;;;-1.05;100.00;97705.81;5042930;28;19921;-69
2023/01/31 05:41:13;;;;;;;;;;;;;;;-1.04;100.00;97709.34;5022080;28;19917;-68
2023/01/31 05:43:38;;;;;;;;;;;;;;;-1.01;100.00;97706.94;5059640;28;19967;-68
2023/01/31 05:46:03;;;;;;;;;;;;;;;-1.00;100.00;97710.41;5038268;28;19921;-63
2023/01/31 05:48:29;;;;;;;;;;;;;;;-0.93;100.00;97710.16;5043275;28;20291;-67
2023/01/31 05:50:54;;;;;;;;;;;;;;;-0.89;100.00;97714.72;5043290;28;19947;-68
2023/01/31 05:53:21;;;;;;;;;;;;;;;-0.86;100.00;97716.09;5039052;28;19920;-68
2023/01/31 05:55:48;;;;;;;;;;;;;;;-0.86;100.00;97716.91;5058312;28;19946;-69
2023/01/31 05:58:14;;;;;;;;;;;;;;;-0.86;100.00;97708.81;5039244;28;19935;-67
2023/01/31 06:00:39;;;;;;;;;;;;;;;-0.93;100.00;97723.63;5042658;28;20030;-67
2023/01/31 06:03:04;;;;;;;;;;;;;;;-1.05;100.00;97713.91;5039409;28;20045;-63
2023/01/31 06:05:29;;;;;;;;;;;;;;;-1.06;100.00;97722.22;5042445;28;19921;-69
2023/01/31 06:07:55;;;;;;;;;;;;;;;-1.04;100.00;97717.41;5043550;28;19921;-69
2023/01/31 06:10:21;;;;;;;;;;;;;;;-1.01;100.00;97727.63;5038449;28;19986;-69
2023/01/31 06:12:46;;;;;;;;;;;;;;;-0.97;100.00;97728.72;5043106;28;19917;-69
2023/01/31 06:15:11;;;;;;;;;;;;;;;-0.98;100.00;97724.41;5038871;28;19917;-69
2023/01/31 06:17:37;;;;;;;;;;;;;;;-0.89;100.00;97717.41;5043730;28;19921;-70
2023/01/31 06:20:03;;;;;;;;;;;;;;;-0.85;100.00;97715.00;5042013;28;20022;-68
2023/01/31 06:22:28;;;;;;;;;;;;;;;-0.80;100.00;97709.63;5023940;28;19916;-70
2023/01/31 06:24:53;;;;;;;;;;;;;;;-1.01;100.00;97719.53;5045349;28;19923;-69
2023/01/31 06:27:19;;;;;;;;;;;;;;;-1.18;100.00;97723.28;5020654;28;19917;-70
2023/01/31 06:29:44;;;;;;;;;;;;;;;-1.31;100.00;97723.78;5043016;28;19935;-70
2023/01/31 06:32:09;;;;;;;;;;;;;;;-1.40;100.00;97723.50;5020149;28;19917;-71
2023/01/31 06:34:35;;;;;;;;;;;;;;;-1.38;100.00;97721.34;5043139;28;20277;-70
2023/01/31 06:37:00;;;;;;;;;;;;;;;-1.25;100.00;97727.31;5042481;28;19931;-73
2023/01/31 06:39:25;;;;;;;;;;;;;;;-1.21;100.00;97725.69;5039777;28;19916;-71
2023/01/31 06:41:51;;;;;;;;;;;;;;;-1.10;100.00;97727.31;5047536;28;19923;-70
2023/01/31 06:44:16;;;;;;;;;;;;;;;-0.97;100.00;97728.72;5063742;28;19931;-71
2023/01/31 06:46:41;;;;;;;;;;;;;;;-0.87;100.00;97735.97;5025506;28;20302;-70
2023/01/31 06:49:07;;;;;;;;;;;;;;;-0.75;100.00;97733.06;5049721;28;19920;-70
2023/01/31 06:51:32;;;;;;;;;;;;;;;-0.55;100.00;97743.00;5027400;28;19936;-70
2023/01/31 06:53:57;;;;;;;;;;;;;;;-0.50;100.00;97745.72;5024591;28;19925;-70
2023/01/31 06:56:22;;;;;;;;;;;;;;;-0.41;100.00;97742.19;5018640;28;20014;-70
2023/01/31 06:58:48;;;;;;;;;;;;;;;-0.31;100.00;97737.88;5040680;28;20301;-70
2023/01/31 07:01:13;;;;;;;;;;;;;;;-0.33;100.00;97734.66;5039050;28;19920;-70
2023/01/31 07:03:39;;;;;;;;;;;;;;;-0.35;100.00;97734.94;5042387;28;20008;-70
2023/01/31 07:06:05;;;;;;;;;;;;;;;-0.40;100.00;97734.91;5055672;28;19921;-69
2023/01/31 07:08:31;;;;;;;;;;;;;;;-0.48;100.00;97727.41;5073450;28;20340;-70
2023/01/31 07:10:56;;;;;;;;;;;;;;;-0.42;100.00;97726.31;5024884;28;20436;-70
2023/01/31 07:13:22;;;;;;;;;;;;;;;-0.44;100.00;97731.16;5038414;28;19964;-70
2023/01/31 07:15:47;;;;;;;;;;;;;;;-0.40;100.00;97726.84;5043058;28;19924;-70
2023/01/31 07:18:13;;;;;;;;;;;;;;;-0.48;100.00;97724.72;5037509;28;19969;-70
2023/01/31 07:20:41;;;;;;;;;;;;;;;-0.47;100.00;97734.38;5043118;28;20007;-70
2023/01/31 07:23:07;;;;;;;;;;;;;;;-0.41;100.00;97730.63;5019776;28;19970;-69
2023/01/31 07:25:33;;;;;;;;;;;;;;;-0.36;100.00;97741.41;5061217;28;19917;-72
2023/01/31 07:27:59;;;;;;;;;;;;;;;-0.34;100.00;97743.81;5051144;28;20082;-70
2023/01/31 07:30:25;;;;;;;;;;;;;;;-0.16;100.00;97747.81;5043057;28;19936;-69
2023/01/31 07:32:51;;;;;;;;;;;;;;;0.00;100.00;97752.13;5038945;28;19920;-71
2023/01/31 07:35:16;;;;;;;;;;;;;;;0.03;100.00;97758.84;5055779;28;20374;-71
2023/01/31 07:37:42;;;;;;;;;;;;;;;0.12;100.00;97752.63;5057914;28;20366;-70
2023/01/31 07:40:08;;;;;;;;;;;;;;;0.15;100.00;97746.69;5037935;28;19935;-70
2023/01/31 07:42:33;;;;;;;;;;;;;;;0.12;100.00;97735.66;5045631;28;19928;-70
2023/01/31 07:44:59;;;;;;;;;;;;;;;0.24;100.00;97741.56;5024712;28;19916;-70
2023/01/31 07:47:24;;;;;;;;;;;;;;;0.26;100.00;97746.69;5053391;28;19917;-70
2023/01/31 07:49:49;;;;;;;;;;;;;;;0.14;100.00;97744.28;5045053;28;19920;-70
2023/01/31 07:52:15;;;;;;;;;;;;;;;0.12;100.00;97739.16;5019243;28;20003;-70
2023/01/31 07:54:40;;;;;;;;;;;;;;;0.16;100.00;97734.84;5024995;28;19924;-69
2023/01/31 07:57:06;;;;;;;;;;;;;;;0.44;100.00;97740.69;5021418;28;20496;-68
2023/01/31 07:59:31;;;;;;;;;;;;;;;0.73;100.00;97740.84;5041850;28;20385;-71
2023/01/31 08:04:42;;;;;;;;;;;;;;;1.04;100.00;97737.97;5045842;28;19920;-74
2023/01/31 08:07:09;;;;;;;;;;;;;;;1.31;100.00;97729.44;5040248;28;20293;-71
2023/01/31 08:09:34;;;;;;;;;;;;;;;1.36;100.00;97731.28;5046043;28;20309;-70
2023/01/31 08:11:59;;;;;;;;;;;;;;;1.48;100.00;97728.25;5060487;28;19917;-70
2023/01/31 08:14:27;;;;;;;;;;;;;;;1.57;100.00;97731.13;5044765;28;20286;-70
2023/01/31 08:16:53;;;;;;;;;;;;;;;1.62;100.00;97736.47;5046393;28;20285;-70
2023/01/31 08:19:18;;;;;;;;;;;;;;;2.27;100.00;97747.78;5022736;28;19972;-70
2023/01/31 08:21:43;;;;;;;;;;;;;;;2.80;100.00;97748.78;5044997;28;19987;-70
2023/01/31 08:24:08;;;;;;;;;;;;;;;3.37;100.00;97738.00;5023151;28;19920;-70
2023/01/31 08:26:34;;;;;;;;;;;;;;;3.92;95.91;97735.44;5045828;28;19917;-70
2023/01/31 08:28:59;;;;;;;;;;;;;;;4.94;91.74;97742.75;5059482;28;19916;-71
2023/01/31 08:31:25;;;;;;;;;;;;;;;5.75;85.07;97740.06;5040939;28;19921;-71
2023/01/31 08:33:51;;;;;;;;;;;;;;;4.95;83.08;97750.59;5028289;28;19917;-71
2023/01/31 08:36:20;;;;;;;;;;;;;;;4.75;84.53;97740.13;5022369;28;19917;-70
2023/01/31 08:38:46;;;;;;;;;;;;;;;4.64;85.55;97746.88;5027369;28;19916;-70
2023/01/31 08:41:11;;;;;;;;;;;;;;;4.25;86.22;97751.69;5040091;28;19917;-70
2023/01/31 08:43:37;;;;;;;;;;;;;;;4.08;88.42;97740.63;5045318;28;19923;-70
2023/01/31 08:46:05;;;;;;;;;;;;;;;3.81;90.78;97742.94;5057214;28;19924;-69
2023/01/31 08:48:34;;;;;;;;;;;;;;;3.38;95.19;97748.50;5044879;28;19924;-71
2023/01/31 08:51:04;;;;;;;;;;;;;;;3.16;98.35;97751.00;5044268;28;20386;-70
2023/01/31 08:53:29;;;;;;;;;;;;;;;3.15;96.88;97750.22;5044191;28;19927;-70
2023/01/31 08:55:58;;;;;;;;;;;;;;;3.05;97.94;97756.56;5045331;28;19924;-70
2023/01/31 08:58:24;;;;;;;;;;;;;;;3.38;96.78;97759.34;5040930;28;20371;-70
2023/01/31 09:00:49;;;;;;;;;;;;;;;3.24;95.58;97753.03;5041924;28;19921;-70
2023/01/31 09:03:18;;;;;;;;;;;;;;;2.84;97.41;97755.22;5043120;28;19924;-70
2023/01/31 09:05:44;;;;;;;;;;;;;;;2.58;99.56;97752.03;5044162;28;19917;-69
2023/01/31 09:08:09;;;;;;;;;;;;;;;2.75;100.00;97749.63;5039610;28;19927;-70
2023/01/31 09:10:35;;;;;;;;;;;;;;;3.16;98.90;97745.59;5029954;28;20071;-69
2023/01/31 09:13:00;;;;;;;;;;;;;;;3.42;97.45;97754.13;5048031;28;19920;-69
2023/01/31 09:15:25;;;;;;;;;;;;;;;3.90;94.58;97748.50;5041195;28;19959;-70
2023/01/31 09:17:51;;;;;;;;;;;;;;;4.68;89.97;97737.03;5026196;28;19921;-71
2023/01/31 09:20:16;;;;;;;;;;;;;;;5.03;87.45;97731.97;5038631;28;19917;-70
2023/01/31 09:22:42;;;;;;;;;;;;;;;5.38;87.77;97738.50;5026176;28;19968;-70
2023/01/31 09:25:07;;;;;;;;;;;;;;;6.01;78.51;97736.72;5039081;28;19924;-70
2023/01/31 09:27:34;;;;;;;;;;;;;;;6.14;79.89;97735.06;5043876;28;19916;-71
2023/01/31 09:29:59;;;;;;;;;;;;;;;5.87;78.26;97727.81;5044446;28;19921;-70
2023/01/31 09:32:25;;;;;;;;;;;;;;;6.28;79.00;97732.22;5039329;28;19969;-70
2023/01/31 09:34:50;;;;;;;;;;;;;;;5.64;79.38;97730.56;5044042;28;19986;-71
2023/01/31 09:37:15;;;;;;;;;;;;;;;5.63;80.55;97739.81;5038783;28;19970;-71
2023/01/31 09:39:41;;;;;;;;;;;;;;;5.39;82.97;97739.31;5026106;28;20103;-71
2023/01/31 09:42:14;;;;;;;;;;;;;;;7.24;74.78;97743.41;5054096;28;19971;-70
2023/01/31 09:44:41;;;;;;;;;;;;;;;6.83;73.93;97739.16;5043876;28;19962;-70
2023/01/31 09:47:17;;;;;;;;;;;;;;;6.48;70.61;97748.03;5038094;28;19917;-70
2023/01/31 09:49:47;;;;;;;;;;;;;;;6.94;72.30;97740.47;5043249;28;19936;-70
2023/01/31 09:52:13;;;;;;;;;;;;;;;7.29;70.51;97735.06;5039740;28;20302;-71
2023/01/31 09:54:39;;;;;;;;;;;;;;;8.18;66.59;97737.38;5029359;28;19923;-70
2023/01/31 09:57:10;;;;;;;;;;;;;;;8.59;65.17;97744.97;5029019;28;19917;-69
2023/01/31 09:59:46;;;;;;;;;;;;;;;8.76;62.32;97738.63;5054900;28;19916;-70
2023/01/31 10:02:29;;;;;;;;;;;;;;;7.64;66.71;97737.78;5046525;28;19928;-71
2023/01/31 10:04:57;;;;;;;;;;;;;;;7.03;69.55;97727.66;5043661;28;19924;-70
2023/01/31 10:07:42;;;;;;;;;;;;;;;8.29;64.55;97735.91;5038129;28;20388;-69
2023/01/31 10:10:24;;;;;;;;;;;;;;;7.99;64.55;97735.00;5038626;28;20357;-69
2023/01/31 10:12:52;;;;;;;;;;;;;;;8.05;63.72;97725.56;5025737;28;20340;-71
2023/01/31 10:15:17;;;;;;;;;;;;;;;7.82;65.12;97733.13;5053356;28;19920;-71
2023/01/31 10:17:45;;;;;;;;;;;;;;;8.18;64.47;97730.00;5042601;28;20027;-70
2023/01/31 10:20:19;;;;;;;;;;;;;;;8.65;63.07;97721.00;5038357;28;19917;-69
2023/01/31 10:22:50;;;;;;;;;;;;;;;8.17;62.99;97728.38;5045691;28;19942;-70
2023/01/31 10:25:16;;;;;;;;;;;;;;;8.12;63.48;97727.75;5037750;28;20001;-70
2023/01/31 10:27:44;;;;;;;;;;;;;;;8.24;62.88;97720.50;5048094;28;19916;-70
2023/01/31 10:30:16;;;;;;;;;;;;;;;6.50;67.04;97713.13;5037772;28;20381;-70
2023/01/31 10:32:47;;;;;;;;;;;;;;;5.58;72.33;97707.31;5024520;28;19916;-71
2023/01/31 10:35:33;;;;;;;;;;;;;;;5.54;74.03;97704.41;5038460;28;19917;-70
2023/01/31 10:38:11;;;;;;;;;;;;;;;6.21;71.51;97699.22;5042718;28;20002;-70
2023/01/31 10:40:38;;;;;;;;;;;;;;;6.54;70.93;97709.78;5025105;28;19917;-70
2023/01/31 10:43:10;;;;;;;;;;;;;;;7.28;67.36;97704.28;5038882;28;20374;-69
2023/01/31 10:45:37;;;;;;;;;;;;;;;7.77;65.09;97697.84;5042901;28;19927;-71
2023/01/31 10:48:20;;;;;;;;;;;;;;;7.18;66.42;97707.31;5041102;28;19923;-69
2023/01/31 10:50:49;;;;;;;;;;;;;;;8.20;63.13;97686.81;5042652;28;19925;-69
2023/01/31 10:53:14;;;;;;;;;;;;;;;7.78;65.79;97689.34;5020621;28;19944;-69
2023/01/31 10:55:45;;;;;;;;;;;;;;;7.67;65.55;97685.34;5042620;28;19967;-69
2023/01/31 10:58:16;;;;;;;;;;;;;;;8.26;61.88;97686.63;5020924;28;19925;-69
2023/01/31 11:00:41;;;;;;;;;;;;;;;8.33;60.10;97676.78;5054099;28;19935;-69
2023/01/31 11:03:09;;;;;;;;;;;;;;;7.50;63.03;97682.63;5050125;28;20000;-71
2023/01/31 11:05:37;;;;;;;;;;;;;;;7.00;66.10;97678.47;5042657;28;19921;-70
2023/01/31 11:08:16;;;;;;;;;;;;;;;6.59;67.41;97675.03;5041173;28;19956;-69
2023/01/31 11:10:52;;;;;;;;;;;;;;;6.56;68.35;97670.22;5042330;28;19975;-70
2023/01/31 11:13:18;;;;;;;;;;;;;;;6.84;67.16;97667.22;5025803;28;20458;-70
2023/01/31 11:15:43;;;;;;;;;;;;;;;6.69;68.68;97673.94;5022029;28;20000;-70
2023/01/31 11:18:13;;;;;;;;;;;;;;;6.12;69.28;97664.66;5017422;28;20297;-69
2023/01/31 11:20:46;;;;;;;;;;;;;;;5.99;70.33;97660.09;5014486;28;20024;-69
2023/01/31 11:23:14;;;;;;;;;;;;;;;5.50;71.54;97651.00;5017307;28;20008;-70
2023/01/31 11:25:45;;;;;;;;;;;;;;;5.07;74.66;97635.19;5020602;28;20004;-70
2023/01/31 11:28:33;;;;;;;;;;;;;;;5.22;74.82;97643.00;5017007;28;20401;-70
2023/01/31 11:31:00;;;;;;;;;;;;;;;5.34;74.14;97637.78;5010899;28;19921;-70
2023/01/31 11:33:44;;;;;;;;;;;;;;;5.46;74.72;97645.38;5017979;28;19984;-70
2023/01/31 11:36:10;;;;;;;;;;;;;;;5.07;76.08;97629.78;5018124;28;19917;-70
2023/01/31 11:38:36;;;;;;;;;;;;;;;4.70;77.52;97624.38;5023317;28;19963;-70
2023/01/31 11:41:21;;;;;;;;;;;;;;;4.96;78.25;97629.22;5022176;28;19917;-70
2023/01/31 11:43:46;;;;;;;;;;;;;;;4.82;77.81;97625.72;5041932;28;19927;-70
2023/01/31 11:46:12;;;;;;;;;;;;;;;4.54;80.29;97623.91;5036891;28;19921;-70
2023/01/31 11:48:41;;;;;;;;;;;;;;;4.62;80.29;97602.56;5024245;28;19920;-70
2023/01/31 11:51:08;;;;;;;;;;;;;;;4.70;80.07;97609.97;5037245;28;19921;-70
2023/01/31 11:53:38;;;;;;;;;;;;;;;4.70;80.32;97604.53;5041107;28;19916;-70
2023/01/31 11:56:12;;;;;;;;;;;;;;;4.64;80.83;97595.72;5037318;28;20278;-70
2023/01/31 11:58:38;;;;;;;;;;;;;;;4.79;79.87;97592.66;5023305;28;20329;-70
2023/01/31 12:01:04;;;;;;;;;;;;;;;4.85;79.99;97587.13;5037563;28;19928;-69
2023/01/31 12:03:29;;;;;;;;;;;;;;;4.72;81.54;97577.94;5042345;28;19928;-70
2023/01/31 12:06:02;;;;;;;;;;;;;;;5.05;80.66;97567.63;5042162;28;19923;-70
2023/01/31 12:08:27;;;;;;;;;;;;;;;4.66;80.91;97555.50;5020041;28;19920;-70
2023/01/31 12:10:52;;;;;;;;;;;;;;;4.47;81.73;97552.97;5042366;28;19920;-70
2023/01/31 12:13:19;;;;;;;;;;;;;;;4.66;81.72;97562.84;5038223;28;19941;-70
2023/01/31 12:15:50;;;;;;;;;;;;;;;5.61;79.37;97573.53;5041124;28;19999;-70
2023/01/31 12:18:23;;;;;;;;;;;;;;;6.42;72.15;97585.97;5037678;28;19959;-70
2023/01/31 12:20:56;;;;;;;;;;;;;;;7.65;68.70;97578.50;5042752;28;19951;-70
2023/01/31 12:23:42;;;;;;;;;;;;;;;7.02;67.11;97578.16;5037428;28;19917;-70
2023/01/31 12:26:23;;;;;;;;;;;;;;;7.75;65.61;97571.94;5017881;28;19984;-71
2023/01/31 12:28:52;;;;;;;;;;;;;;;7.72;64.67;97567.13;5055994;28;20427;-70
2023/01/31 12:31:17;;;;;;;;;;;;;;;7.52;64.58;97569.41;5054225;28;19921;-71
2023/01/31 12:33:45;;;;;;;;;;;;;;;7.68;64.04;97577.09;5035113;28;19978;-71
2023/01/31 12:36:10;;;;;;;;;;;;;;;8.41;61.21;97572.22;5044308;28;19925;-70
2023/01/31 12:38:48;;;;;;;;;;;;;;;9.09;59.43;97581.38;5025380;28;20255;-69
2023/01/31 12:41:22;;;;;;;;;;;;;;;8.53;60.31;97584.38;5053487;28;19916;-70
2023/01/31 12:43:56;;;;;;;;;;;;;;;8.23;60.63;97585.19;5041663;28;19920;-71
2023/01/31 12:46:40;;;;;;;;;;;;;;;8.42;59.92;97578.50;5052509;28;20587;-70
2023/01/31 12:49:26;;;;;;;;;;;;;;;8.93;57.38;97573.81;5040531;28;19927;-70
2023/01/31 12:52:10;;;;;;;;;;;;;;;8.33;58.55;97561.38;4997044;28;19947;-69
2023/01/31 12:54:35;;;;;;;;;;;;;;;7.88;61.96;97557.25;5044691;28;19924;-70
2023/01/31 12:57:10;;;;;;;;;;;;;;;7.92;60.47;97546.50;5044791;28;20290;-70